Time;durP1;ratioP1;P1;durP2;ratioP2;P2;SDS_P1;SDS_P2;PMS_P1;PMS_P2;Temp;Humidity;BMP_temperature;BMP_pressure;BME280_temperature;BME280_humidity;BME280_pressure;Samples;Min_cycle;Max_cycle;Signal;HPM_P1;HPM_P2
2022/08/19 00:01:30;;;;;;;20.73;16.17;;;;;;;21.41;90.12;101211.97;5075174;28;20051;-51
2022/08/19 00:03:59;;;;;;;18.42;16.20;;;;;;;21.43;90.03;101203.28;5092212;28;20043;-53
2022/08/19 00:06:28;;;;;;;21.02;17.10;;;;;;;21.43;90.16;101212.44;5070812;28;20494;-53
2022/08/19 00:08:57;;;;;;;19.52;17.20;;;;;;;21.41;90.25;101203.66;5078069;28;20044;-51
2022/08/19 00:11:27;;;;;;;20.50;18.30;;;;;;;21.40;90.25;101202.00;5097234;28;20040;-53
2022/08/19 00:13:56;;;;;;;20.92;17.48;;;;;;;21.39;90.62;101203.16;5096897;28;20506;-53
2022/08/19 00:16:25;;;;;;;19.40;17.13;;;;;;;21.38;90.76;101203.44;5077321;28;20048;-53
2022/08/19 00:18:55;;;;;;;19.88;17.70;;;;;;;21.35;90.71;101199.38;5097048;28;20040;-56
2022/08/19 00:21:26;;;;;;;20.85;18.30;;;;;;;21.35;90.83;101201.34;5083122;28;20043;-54
2022/08/19 00:23:57;;;;;;;21.67;18.55;;;;;;;21.33;90.89;101207.22;5096679;28;20032;-52
2022/08/19 00:26:26;;;;;;;21.33;18.17;;;;;;;21.32;91.24;101213.13;5095452;28;20044;-51
2022/08/19 00:28:55;;;;;;;21.95;18.17;;;;;;;21.28;91.05;101205.44;5096566;28;20051;-56
2022/08/19 00:31:24;;;;;;;21.30;18.73;;;;;;;21.26;91.29;101204.13;5096709;28;20040;-51
2022/08/19 00:33:52;;;;;;;20.83;18.65;;;;;;;21.22;91.70;101209.53;5096790;28;20405;-50
2022/08/19 00:36:20;;;;;;;23.30;17.70;;;;;;;21.21;91.82;101209.88;5094541;28;20104;-51
2022/08/19 00:38:48;;;;;;;20.55;18.25;;;;;;;21.18;92.02;101219.66;5096910;28;20441;-55
2022/08/19 00:41:20;;;;;;;20.67;18.50;;;;;;;21.15;92.61;101223.09;5078568;28;20498;-54
2022/08/19 00:44:22;;;;;;;20.10;17.58;;;;;;;21.10;92.54;101226.06;5096181;28;20043;-54
2022/08/19 00:46:55;;;;;;;21.38;19.05;;;;;;;21.06;92.96;101217.56;5046756;28;20063;-55
2022/08/19 00:49:33;;;;;;;22.05;19.13;;;;;;;21.04;93.12;101225.38;5078867;28;20047;-55
2022/08/19 00:52:06;;;;;;;21.55;19.25;;;;;;;21.01;93.21;101214.97;5096234;28;20043;-56
2022/08/19 00:54:36;;;;;;;21.65;19.13;;;;;;;20.98;93.43;101206.53;5077977;28;20457;-54
2022/08/19 00:57:08;;;;;;;21.42;19.23;;;;;;;20.97;93.43;101210.41;5060716;28;20047;-55
2022/08/19 00:59:37;;;;;;;20.75;17.85;;;;;;;20.96;93.02;101211.56;5096122;28;20499;-52
2022/08/19 01:02:27;;;;;;;21.10;18.13;;;;;;;20.91;93.17;101214.53;5081333;28;20044;-55
2022/08/19 01:04:55;;;;;;;22.40;19.98;;;;;;;20.90;93.50;101216.47;5095917;28;20494;-51
2022/08/19 01:07:23;;;;;;;23.65;21.02;;;;;;;20.88;93.85;101215.16;5076448;28;20047;-50
2022/08/19 01:09:51;;;;;;;25.13;21.48;;;;;;;20.87;94.21;101205.22;5095930;28;20052;-54
2022/08/19 01:12:19;;;;;;;23.83;20.73;;;;;;;20.83;94.14;101211.44;5078274;28;20040;-52
2022/08/19 01:14:47;;;;;;;23.35;20.85;;;;;;;20.82;94.19;101209.78;5077665;28;20043;-48
2022/08/19 01:17:15;;;;;;;26.83;20.98;;;;;;;20.82;94.42;101201.47;5095031;28;20055;-54
2022/08/19 01:19:43;;;;;;;24.60;21.60;;;;;;;20.81;94.46;101213.72;5093225;28;20415;-49
2022/08/19 01:22:16;;;;;;;25.05;21.85;;;;;;;20.80;94.40;101220.38;5077334;28;20040;-55
2022/08/19 01:24:52;;;;;;;24.40;21.70;;;;;;;20.76;94.47;101213.88;5078794;28;20040;-54
2022/08/19 01:27:21;;;;;;;23.63;21.13;;;;;;;20.74;94.58;101216.16;5078173;28;20058;-54
2022/08/19 01:29:51;;;;;;;23.05;20.42;;;;;;;20.73;94.67;101210.94;5094842;28;20047;-54
2022/08/19 01:32:20;;;;;;;24.20;21.23;;;;;;;20.72;94.45;101209.34;5060990;28;20040;-55
2022/08/19 01:35:02;;;;;;;24.27;21.67;;;;;;;20.70;94.62;101220.72;5095399;28;20040;-52
2022/08/19 01:37:40;;;;;;;22.88;20.35;;;;;;;20.69;94.58;101216.34;5094612;28;20051;-51
2022/08/19 01:40:09;;;;;;;23.40;20.90;;;;;;;20.67;94.61;101218.63;5075766;28;20033;-54
2022/08/19 01:42:37;;;;;;;29.05;20.73;;;;;;;20.64;94.85;101217.31;5095114;28;20050;-53
2022/08/19 01:45:07;;;;;;;22.45;19.50;;;;;;;20.63;95.10;101217.63;5094542;28;20042;-50
2022/08/19 01:47:38;;;;;;;23.50;20.20;;;;;;;20.61;95.13;101212.44;5092994;28;20043;-52
2022/08/19 01:50:08;;;;;;;23.05;20.17;;;;;;;20.60;95.24;101204.44;5076314;28;20039;-51
2022/08/19 01:52:40;;;;;;;21.25;18.77;;;;;;;20.60;95.33;101215.53;5077203;28;20498;-50
2022/08/19 01:55:12;;;;;;;21.70;19.33;;;;;;;20.59;95.61;101219.44;5077478;28;20051;-52
2022/08/19 01:57:41;;;;;;;23.55;18.92;;;;;;;20.59;95.73;101224.97;5094511;28;20043;-52
2022/08/19 02:00:12;;;;;;;23.42;18.48;;;;;;;20.57;95.18;101222.53;5076608;28;20036;-54
2022/08/19 02:02:39;;;;;;;21.73;18.52;;;;;;;20.54;95.53;101220.38;5095289;28;20040;-52
2022/08/19 02:05:11;;;;;;;24.23;19.73;;;;;;;20.56;95.54;101228.38;5075977;28;20032;-51
2022/08/19 02:07:40;;;;;;;22.95;19.65;;;;;;;;;;5076924;28;20047;-55
2022/08/19 02:10:09;;;;;;;24.17;21.50;;;;;;;;;;5093413;28;20031;-51
2022/08/19 02:12:40;;;;;;;23.70;20.17;;;;;;;20.52;95.87;101225.44;5094258;28;20402;-54
2022/08/19 02:15:08;;;;;;;23.20;20.00;;;;;;;20.50;96.09;101232.44;5059708;28;20040;-52
2022/08/19 02:17:36;;;;;;;23.88;19.73;;;;;;;20.48;96.06;101234.72;5094735;28;20032;-50
2022/08/19 02:20:05;;;;;;;19.90;17.23;;;;;;;20.49;96.15;101247.41;5094349;28;20043;-51
2022/08/19 02:22:33;;;;;;;22.30;18.85;;;;;;;20.49;95.88;101241.88;5057541;28;20387;-51
2022/08/19 02:25:01;;;;;;;24.15;19.13;;;;;;;20.50;96.10;101237.97;5076482;28;20077;-55
2022/08/19 02:27:29;;;;;;;20.30;16.70;;;;;;;20.52;95.95;101230.16;5094411;28;20043;-51
2022/08/19 02:29:57;;;;;;;18.27;15.68;;;;;;;20.54;95.48;101223.16;5093869;28;20044;-52
2022/08/19 02:32:25;;;;;;;25.00;17.52;;;;;;;20.54;95.01;101230.63;5074406;28;20506;-52
2022/08/19 02:34:53;;;;;;;20.92;18.15;;;;;;;20.51;95.27;101232.09;5093818;28;20036;-50
2022/08/19 02:40:07;;;;;;;23.95;19.45;;;;;;;20.40;95.93;101245.44;5094616;28;20044;-50
2022/08/19 02:42:40;;;;;;;23.05;19.05;;;;;;;20.40;96.12;101241.88;5093607;28;20040;-51
2022/08/19 02:45:09;;;;;;;23.83;19.52;;;;;;;20.41;95.92;101240.72;5093975;28;20036;-52
2022/08/19 02:47:36;;;;;;;23.60;19.48;;;;;;;20.42;96.02;101245.94;5093829;28;20054;-54
2022/08/19 02:50:05;;;;;;;24.05;18.80;;;;;;;20.43;95.70;101239.25;5076014;28;20036;-56
2022/08/19 02:52:33;;;;;;;25.48;19.08;;;;;;;20.43;95.84;101249.53;5074885;28;20039;-52
2022/08/19 02:55:02;;;;;;;22.65;19.02;;;;;;;20.45;95.59;101251.97;5075620;28;20044;-54
2022/08/19 02:57:31;;;;;;;19.98;17.80;;;;;;;20.45;95.60;101240.91;5076289;28;20044;-52
2022/08/19 03:00:00;;;;;;;21.00;17.83;;;;;;;20.45;95.29;101241.72;5075557;28;20032;-52
2022/08/19 03:02:27;;;;;;;23.80;18.83;;;;;;;20.42;95.17;101245.94;5093914;28;20040;-55
2022/08/19 03:04:55;;;;;;;20.42;18.23;;;;;;;20.38;95.21;101244.97;5092477;28;20040;-53
2022/08/19 03:07:23;;;;;;;23.23;18.20;;;;;;;20.37;95.38;101251.66;5093730;28;20044;-54
2022/08/19 03:09:50;;;;;;;24.08;20.15;;;;;;;20.35;95.32;101244.81;5075834;28;20036;-54
2022/08/19 03:12:18;;;;;;;22.73;19.63;;;;;;;20.31;95.58;101247.38;5093322;28;20051;-54
2022/08/19 03:14:46;;;;;;;23.33;18.55;;;;;;;20.30;95.74;101244.94;5091798;28;20125;-55
2022/08/19 03:17:14;;;;;;;22.42;17.02;;;;;;;20.30;95.85;101245.78;5093516;28;20383;-50
2022/08/19 03:19:42;;;;;;;22.23;17.42;;;;;;;20.31;95.48;101243.81;5093436;28;20044;-54
2022/08/19 03:22:10;;;;;;;21.52;17.60;;;;;;;20.30;95.46;101253.25;5090548;28;20613;-52
2022/08/19 03:24:38;;;;;;;19.73;16.83;;;;;;;20.30;95.57;101253.25;5082556;28;20402;-51
2022/08/19 03:27:06;;;;;;;20.13;17.25;;;;;;;20.30;95.49;101256.84;5093237;28;20112;-51
2022/08/19 03:29:38;;;;;;;22.92;16.73;;;;;;;20.32;95.30;101251.78;5093677;28;20410;-53
2022/08/19 03:32:10;;;;;;;24.80;17.92;;;;;;;20.30;95.34;101244.94;5076120;28;20418;-50
2022/08/19 03:34:58;;;;;;;23.52;18.80;;;;;;;20.23;95.36;101248.22;5092121;28;20043;-52
2022/08/19 03:37:26;;;;;;;22.17;18.25;;;;;;;20.22;96.00;101255.66;5093182;28;20048;-54
2022/08/19 03:39:53;;;;;;;24.20;20.30;;;;;;;20.20;95.94;101254.38;5093702;28;20052;-58
2022/08/19 03:42:21;;;;;;;24.48;19.80;;;;;;;20.20;95.96;101248.84;5093166;28;20039;-55
2022/08/19 03:45:10;;;;;;;21.20;18.15;;;;;;;20.20;96.10;101249.66;5091992;28;20034;-52
2022/08/19 03:47:38;;;;;;;23.17;19.60;;;;;;;20.18;96.21;101253.91;5092650;28;20044;-52
2022/08/19 03:50:05;;;;;;;22.45;19.17;;;;;;;20.14;96.30;101237.13;5075070;28;20040;-49
2022/08/19 03:52:33;;;;;;;28.02;20.10;;;;;;;20.13;96.46;101237.41;5092807;28;20035;-51
2022/08/19 03:55:01;;;;;;;21.50;16.83;;;;;;;20.14;96.44;101228.00;5093005;28;20052;-54
2022/08/19 03:57:29;;;;;;;19.55;16.25;;;;;;;20.18;96.36;101231.75;5091025;28;20464;-53
2022/08/19 03:59:58;;;;;;;19.98;15.30;;;;;;;20.19;95.81;101225.06;5093360;28;20490;-56
2022/08/19 04:02:40;;;;;;;20.98;17.25;;;;;;;20.18;95.19;101232.56;5093232;28;20483;-56
2022/08/19 04:05:08;;;;;;;21.83;16.98;;;;;;;20.17;95.63;101241.19;5092785;28;20451;-54
2022/08/19 04:07:36;;;;;;;19.75;15.80;;;;;;;20.18;95.49;101240.06;5090732;28;20048;-57
2022/08/19 04:10:04;;;;;;;21.65;17.90;;;;;;;20.20;95.21;101257.13;5093342;28;20048;-57
2022/08/19 04:12:32;;;;;;;23.42;18.30;;;;;;;20.18;95.24;101257.47;5075067;28;20039;-53
2022/08/19 04:15:00;;;;;;;24.23;16.90;;;;;;;20.16;95.13;101245.09;5092369;28;20033;-54
2022/08/19 04:17:28;;;;;;;20.85;17.52;;;;;;;20.15;94.71;101243.44;5083716;28;20406;-52
2022/08/19 04:19:55;;;;;;;19.83;16.52;;;;;;;20.08;95.15;101238.38;5092714;28;20047;-54
2022/08/19 04:22:23;;;;;;;19.17;16.42;;;;;;;20.06;94.59;101237.09;5092552;28;20097;-55
2022/08/19 04:24:53;;;;;;;17.05;14.40;;;;;;;20.03;94.65;101246.03;5092283;28;20024;-53
2022/08/19 04:27:21;;;;;;;19.85;15.10;;;;;;;20.00;94.01;101237.25;5090908;28;20056;-56
2022/08/19 04:29:49;;;;;;;18.95;14.20;;;;;;;19.94;93.87;101244.06;5091681;28;20047;-54
2022/08/19 04:32:16;;;;;;;19.27;15.95;;;;;;;19.88;94.33;101233.47;5091952;28;20036;-53
2022/08/19 04:34:44;;;;;;;22.13;14.48;;;;;;;19.88;94.26;101223.22;5091634;28;20043;-49
2022/08/19 04:37:33;;;;;;;16.67;13.15;;;;;;;19.89;94.14;101226.78;5076715;28;20055;-53
2022/08/19 04:42:50;;;;;;;15.00;12.27;;;;;;;19.90;93.94;101234.78;5092418;28;20043;-52
2022/08/19 04:45:18;;;;;;;16.33;13.73;;;;;;;19.92;93.97;101223.41;5073006;28;20066;-53
2022/08/19 04:47:49;;;;;;;17.70;14.63;;;;;;;19.92;93.91;101229.75;5074675;28;20036;-51
2022/08/19 04:50:26;;;;;;;18.48;14.55;;;;;;;19.91;93.52;101239.16;5092635;28;20039;-47
2022/08/19 04:52:55;;;;;;;18.08;13.73;;;;;;;19.91;93.48;101233.63;5074355;28;20521;-52
2022/08/19 04:55:25;;;;;;;17.58;13.43;;;;;;;19.92;93.57;101238.03;5096263;28;20047;-52
2022/08/19 04:57:56;;;;;;;16.67;14.55;;;;;;;19.90;93.45;101237.53;5095126;28;20036;-57
2022/08/19 05:00:24;;;;;;;15.80;13.57;;;;;;;19.90;93.60;101242.28;5095673;28;20440;-48
2022/08/19 05:02:51;;;;;;;14.98;13.05;;;;;;;19.89;93.61;101248.91;5096137;28;20410;-45
2022/08/19 05:05:20;;;;;;;16.30;13.60;;;;;;;19.90;93.65;101245.84;5096775;28;20047;-47
2022/08/19 05:07:48;;;;;;;15.18;12.73;;;;;;;19.94;93.57;101249.59;5094847;28;20051;-45
2022/08/19 05:10:16;;;;;;;17.90;14.85;;;;;;;19.96;93.34;101252.03;5078185;28;20047;-46
2022/08/19 05:12:44;;;;;;;16.98;14.02;;;;;;;19.95;93.21;101247.66;5095625;28;20036;-47
2022/08/19 05:15:12;;;;;;;19.95;14.55;;;;;;;19.95;92.90;101256.75;5095951;28;20036;-46
2022/08/19 05:22:31;;;;;;;16.90;13.95;;;;;;;19.93;92.93;101259.03;5095157;28;20048;-49
2022/08/19 05:23:15;;;;;;;16.95;14.10;;;;;;;19.90;93.05;101258.88;5080716;28;20032;-51
2022/08/19 05:25:51;;;;;;;17.02;15.23;;;;;;;19.89;93.16;101257.22;5077460;28;20036;-49
2022/08/19 05:28:20;;;;;;;18.40;14.38;;;;;;;19.90;93.02;101265.19;5076804;28;20044;-51
2022/08/19 05:30:50;;;;;;;18.98;15.55;;;;;;;19.90;92.88;101259.66;5095938;28;20036;-49
2022/08/19 05:33:18;;;;;;;20.60;16.05;;;;;;;19.88;92.93;101264.69;5095272;28;20052;-49
2022/08/19 05:35:48;;;;;;;19.17;15.48;;;;;;;19.88;92.97;101272.19;5095561;28;20051;-52
2022/08/19 05:38:17;;;;;;;18.00;15.02;;;;;;;19.86;92.93;101275.25;5094063;28;20066;-51
2022/08/19 05:40:46;;;;;;;22.00;16.55;;;;;;;19.84;93.28;101282.25;5095223;28;20096;-52
2022/08/19 05:43:15;;;;;;;22.85;18.05;;;;;;;19.83;93.23;101288.94;5078200;28;20405;-51
2022/08/19 05:45:44;;;;;;;22.67;18.48;;;;;;;19.84;93.54;101287.78;5077190;28;20070;-45
2022/08/19 05:48:12;;;;;;;24.45;20.00;;;;;;;19.80;93.49;101287.63;5060060;28;20048;-46
2022/08/19 05:50:41;;;;;;;27.50;22.52;;;;;;;19.80;93.84;101293.16;5074991;28;20040;-48
2022/08/19 05:53:09;;;;;;;25.38;18.90;;;;;;;19.81;93.71;101288.44;5095274;28;20040;-50
2022/08/19 05:55:38;;;;;;;23.38;19.88;;;;;;;19.79;93.79;101281.28;5077235;28;20051;-47
2022/08/19 05:58:07;;;;;;;32.50;23.05;;;;;;;19.79;93.88;101288.72;5076639;28;20047;-45
2022/08/19 06:00:36;;;;;;;28.80;21.45;;;;;;;19.80;93.90;101276.56;5075482;28;20507;-48
2022/08/19 06:03:05;;;;;;;27.90;20.92;;;;;;;19.83;93.83;101275.09;5076661;28;20044;-52
2022/08/19 06:05:40;;;;;;;30.73;20.95;;;;;;;19.86;93.71;101272.50;5076161;28;20410;-46
2022/08/19 06:08:18;;;;;;;28.08;21.77;;;;;;;19.86;93.28;101269.72;5094674;28;20108;-47
2022/08/19 06:10:46;;;;;;;30.17;24.08;;;;;;;19.81;93.52;101272.66;5093256;28;20537;-49
2022/08/19 06:13:14;;;;;;;33.38;23.13;;;;;;;19.82;93.71;101271.53;5076828;28;20044;-48
2022/08/19 06:15:43;;;;;;;35.03;26.40;;;;;;;19.82;93.45;101273.47;5076125;28;20039;-49
2022/08/19 06:18:11;;;;;;;41.10;29.75;;;;;;;19.81;93.22;101269.06;5094907;28;20089;-50
2022/08/19 06:20:39;;;;;;;34.30;27.23;;;;;;;19.78;93.91;101268.56;5093811;28;20509;-49
2022/08/19 06:23:22;;;;;;;38.58;28.80;;;;;;;19.83;93.33;101275.91;5094266;28;20047;-50
2022/08/19 06:25:51;;;;;;;40.55;29.58;;;;;;;19.85;92.94;101273.66;5094410;28;20048;-52
2022/08/19 06:28:18;;;;;;;36.70;28.67;;;;;;;19.84;93.27;101283.06;5075481;28;20048;-49
2022/08/19 06:30:47;;;;;;;35.38;26.60;;;;;;;19.84;93.20;101279.50;5094204;28;20036;-53
2022/08/19 06:33:14;;;;;;;41.95;29.50;;;;;;;19.86;93.10;101277.22;5060315;28;20039;-51
2022/08/19 06:35:42;;;;;;;42.42;30.77;;;;;;;19.83;93.49;101269.56;5094018;28;20388;-51
2022/08/19 06:38:15;;;;;;;39.40;28.25;;;;;;;19.81;93.90;101271.84;5076585;28;20036;-49
2022/08/19 06:40:43;;;;;;;40.97;30.55;;;;;;;19.80;94.01;101268.25;5073005;28;20040;-48
2022/08/19 06:43:15;;;;;;;40.53;29.75;;;;;;;19.80;94.39;101259.97;5094152;28;20402;-52
2022/08/19 06:45:46;;;;;;;35.47;23.90;;;;;;;19.81;94.21;101267.13;5094303;28;20048;-53
2022/08/19 06:48:14;;;;;;;38.55;25.88;;;;;;;19.86;94.21;101261.44;5094028;28;20046;-51
2022/08/19 06:50:44;;;;;;;36.58;26.85;;;;;;;19.88;93.88;101266.66;5092836;28;20038;-53
2022/08/19 06:53:12;;;;;;;41.15;29.42;;;;;;;19.87;94.37;101271.38;5093642;28;20486;-50
2022/08/19 06:55:41;;;;;;;39.05;28.42;;;;;;;19.84;94.88;101272.00;5093811;28;20040;-51
2022/08/19 06:58:09;;;;;;;38.70;27.48;;;;;;;19.81;95.55;101272.66;5093880;28;20452;-49
2022/08/19 07:00:37;;;;;;;42.88;32.13;;;;;;;19.80;95.91;101273.78;4372770;28;10000429;-52
2022/08/19 07:03:05;;;;;;;39.47;30.08;;;;;;;19.78;96.51;101281.59;5089439;28;20427;-49
2022/08/19 07:05:40;;;;;;;45.03;32.10;;;;;;;19.76;96.90;101279.13;5090635;28;20150;-53
2022/08/19 07:08:13;;;;;;;42.67;29.00;;;;;;;19.68;97.45;101279.13;5073685;28;20164;-52
2022/08/19 07:10:45;;;;;;;38.78;26.90;;;;;;;19.74;97.59;101275.88;5090652;28;20032;-48
2022/08/19 07:13:12;;;;;;;39.67;25.83;;;;;;;19.84;97.21;101274.75;5052478;28;20041;-49
2022/08/19 07:15:40;;;;;;;44.65;30.65;;;;;;;19.89;96.81;101284.88;5089267;28;20048;-49
2022/08/19 07:18:09;;;;;;;39.85;29.02;;;;;;;19.89;97.00;101279.34;5088790;28;20494;-49
2022/08/19 07:20:39;;;;;;;43.40;30.23;;;;;;;19.90;97.23;101275.47;5080654;28;20048;-49
2022/08/19 07:23:09;;;;;;;48.08;32.38;;;;;;;19.90;97.29;101287.31;5089628;28;20055;-48
2022/08/19 07:25:43;;;;;;;44.33;29.50;;;;;;;20.00;96.30;101298.09;5089169;28;20096;-53
2022/08/19 07:28:11;;;;;;;49.67;34.67;;;;;;;19.98;96.76;101294.81;5072450;28;20039;-47
2022/08/19 07:30:51;;;;;;;47.60;35.28;;;;;;;19.93;97.22;101297.75;5090846;28;20043;-51
2022/08/19 07:33:19;;;;;;;37.30;26.02;;;;;;;19.95;97.47;101297.44;5074700;28;20085;-49
2022/08/19 07:35:47;;;;;;;50.50;35.33;;;;;;;20.03;97.71;101302.16;5093103;28;20495;-51
2022/08/19 07:38:16;;;;;;;47.75;32.40;;;;;;;20.04;97.61;101303.81;5093288;28;20051;-54
2022/08/19 07:40:45;;;;;;;46.45;34.42;;;;;;;20.02;97.86;101305.28;5075035;28;20035;-55
2022/08/19 07:43:14;;;;;;;48.30;34.95;;;;;;;19.97;98.40;101297.94;5074838;28;20044;-53
2022/08/19 07:45:44;;;;;;;49.78;35.33;;;;;;;19.92;98.67;101307.19;5093213;28;20052;-53
2022/08/19 07:48:12;;;;;;;38.00;25.73;;;;;;;19.90;98.57;101297.59;5075192;28;20052;-55
2022/08/19 07:50:40;;;;;;;43.10;30.17;;;;;;;19.99;97.73;101307.53;5092696;28;20044;-55
2022/08/19 07:53:07;;;;;;;32.63;23.40;;;;;;;20.08;96.65;101309.50;5092860;28;20415;-52
2022/08/19 07:55:35;;;;;;;38.28;27.27;;;;;;;20.13;96.38;101317.66;5074470;28;20089;-51
2022/08/19 07:58:12;;;;;;;49.30;34.42;;;;;;;20.06;97.79;101312.63;5074588;28;20414;-47
2022/08/19 08:00:41;;;;;;;44.40;32.25;;;;;;;20.05;98.18;101318.47;5093304;28;20028;-52
2022/08/19 08:03:09;;;;;;;39.50;29.40;;;;;;;20.07;98.32;101314.22;5092807;28;20040;-55
2022/08/19 08:11:17;;;;;;;45.13;29.75;;;;;;;19.96;99.22;101310.94;5062184;28;20230;-51
2022/08/19 08:13:48;;;;;;;47.13;33.03;;;;;;;19.98;100.00;101316.97;5092469;28;20040;-50
2022/08/19 08:16:35;;;;;;;50.03;34.00;;;;;;;20.04;99.95;101319.59;5092896;28;20039;-52
2022/08/19 08:19:14;;;;;;;30.17;21.92;;;;;;;20.15;99.02;101323.69;5076849;28;20036;-54
2022/08/19 08:21:54;;;;;;;48.42;34.33;;;;;;;20.21;99.17;101328.75;5092448;28;20040;-51
2022/08/19 08:24:22;;;;;;;35.50;26.10;;;;;;;20.28;98.05;101325.53;5092490;28;20064;-51
2022/08/19 08:26:56;;;;;;;50.65;35.45;;;;;;;20.30;98.41;101331.56;5076096;28;20044;-52
2022/08/19 08:29:25;;;;;;;39.25;26.15;;;;;;;20.35;96.84;101341.66;5060397;28;20036;-53
2022/08/19 08:32:01;;;;;;;40.33;28.83;;;;;;;20.39;97.01;101348.97;5062456;28;20056;-54
2022/08/19 08:34:29;;;;;;;33.33;22.08;;;;;;;20.45;96.00;101346.91;5093763;28;20097;-50
2022/08/19 08:36:57;;;;;;;36.70;26.77;;;;;;;20.49;95.45;101347.06;5095160;28;20048;-49
2022/08/19 08:39:25;;;;;;;42.33;29.48;;;;;;;20.49;95.26;101347.88;5095291;28;20506;-49
2022/08/19 08:41:52;;;;;;;47.20;32.15;;;;;;;20.44;96.05;101350.78;5095888;28;20539;-55
2022/08/19 08:44:43;;;;;;;49.55;31.15;;;;;;;20.37;96.53;101351.28;5096580;28;20032;-55
2022/08/19 08:47:15;;;;;;;17.45;11.85;;;;;;;20.56;92.05;101355.72;5061364;28;20044;-56
2022/08/19 08:50:01;;;;;;;44.35;29.10;;;;;;;20.64;93.83;101363.25;5096237;28;20047;-54
2022/08/19 08:52:35;;;;;;;39.38;27.90;;;;;;;20.62;94.46;101362.75;5094454;28;20216;-53
2022/08/19 08:55:11;;;;;;;42.25;28.08;;;;;;;20.60;94.16;101370.56;5078277;28;20039;-52
2022/08/19 08:57:54;;;;;;;43.58;32.58;;;;;;;20.60;94.69;101365.03;5095830;28;20503;-52
2022/08/19 09:00:26;;;;;;;45.63;30.30;;;;;;;20.48;95.82;101362.03;5093052;28;20040;-54
2022/08/19 09:02:55;;;;;;;43.15;31.73;;;;;;;20.30;96.57;101361.16;5076909;28;20044;-52
2022/08/19 09:05:30;;;;;;;40.97;29.52;;;;;;;20.24;97.20;101366.03;5096867;28;20043;-57
2022/08/19 09:08:35;;;;;;;41.50;27.60;;;;;;;20.23;96.96;101361.66;5081551;28;20520;-56
2022/08/19 09:11:08;;;;;;;44.47;29.27;;;;;;;20.24;97.30;101360.50;5097567;28;20055;-56
2022/08/19 09:13:54;;;;;;;46.60;32.88;;;;;;;20.18;97.30;101367.34;5096491;28;20040;-57
2022/08/19 09:16:26;;;;;;;45.20;33.90;;;;;;;20.17;97.61;101369.28;5096258;28;20051;-57
2022/08/19 09:19:05;;;;;;;54.22;34.13;;;;;;;20.21;97.53;101370.28;5077829;28;20131;-57
2022/08/19 09:21:34;;;;;;;43.70;30.33;;;;;;;20.24;97.39;101363.28;5077321;28;20047;-50
2022/08/19 09:24:04;;;;;;;43.38;27.90;;;;;;;20.28;97.08;101364.28;5076456;28;20132;-52
2022/08/19 09:26:32;;;;;;;29.75;21.17;;;;;;;20.39;96.03;101362.81;5095830;28;20048;-51
2022/08/19 09:29:15;;;;;;;34.70;24.70;;;;;;;20.50;94.60;101370.84;5095875;28;20097;-52
2022/08/19 09:31:44;;;;;;;37.38;24.60;;;;;;;20.54;93.95;101367.13;5078043;28;20051;-52
2022/08/19 09:34:11;;;;;;;39.38;28.75;;;;;;;20.55;92.75;101367.94;5094024;28;20036;-53
2022/08/19 09:36:52;;;;;;;39.58;28.92;;;;;;;20.46;93.07;101373.44;5094570;28;20048;-51
2022/08/19 09:39:22;;;;;;;36.78;24.95;;;;;;;20.38;93.73;101368.69;5078279;28;20071;-48
2022/08/19 09:41:50;;;;;;;36.28;26.98;;;;;;;20.38;94.24;101369.50;5077133;28;20059;-45
2022/08/19 09:44:20;;;;;;;41.13;30.58;;;;;;;20.34;95.46;101379.59;5095518;28;20048;-51
2022/08/19 09:46:48;;;;;;;42.08;30.38;;;;;;;20.32;95.92;101373.53;5076550;28;20403;-51
2022/08/19 09:49:17;;;;;;;44.47;31.98;;;;;;;20.29;96.62;101371.44;5095173;28;20039;-54
2022/08/19 09:51:47;;;;;;;41.67;30.58;;;;;;;20.32;96.54;101375.50;5077063;28;20032;-52
2022/08/19 09:54:18;;;;;;;41.83;29.80;;;;;;;20.36;96.62;101377.31;5076145;28;20036;-53
2022/08/19 09:56:54;;;;;;;40.03;30.13;;;;;;;20.40;96.40;101389.38;5095214;28;20416;-51
2022/08/19 09:59:22;;;;;;;35.53;24.52;;;;;;;20.48;96.12;101378.66;5094617;28;20096;-54
2022/08/19 10:01:51;;;;;;;44.08;34.13;;;;;;;20.56;96.46;101377.88;5094903;28;20044;-50
2022/08/19 10:04:20;;;;;;;34.88;27.30;;;;;;;20.66;95.69;101374.00;5094504;28;20096;-51
2022/08/19 10:06:50;;;;;;;42.55;33.83;;;;;;;20.76;95.31;101379.25;5094478;28;20048;-51
2022/08/19 10:09:22;;;;;;;44.10;32.20;;;;;;;20.83;93.78;101374.03;5077526;28;20494;-52
2022/08/19 10:12:01;;;;;;;40.47;30.30;;;;;;;20.84;91.38;101387.53;5094416;28;20069;-51
2022/08/19 10:14:29;;;;;;;40.42;27.70;;;;;;;20.84;91.63;101383.97;5093301;28;20044;-51
2022/08/19 10:16:57;;;;;;;40.80;27.77;;;;;;;20.94;92.01;101371.75;5094476;28;20387;-49
2022/08/19 10:19:28;;;;;;;39.70;28.15;;;;;;;21.02;91.41;101373.69;5076679;28;20055;-48
2022/08/19 10:21:56;;;;;;;43.13;28.63;;;;;;;21.12;90.59;101370.63;5094375;28;20391;-49
2022/08/19 10:24:27;;;;;;;34.30;25.13;;;;;;;21.16;89.40;101376.31;5093421;28;20039;-51
2022/08/19 10:26:56;;;;;;;39.70;26.50;;;;;;;21.11;88.41;101374.53;5094343;28;20088;-51
2022/08/19 10:29:31;;;;;;;36.72;24.42;;;;;;;21.08;88.88;101369.66;5094095;28;20044;-51
2022/08/19 10:32:01;;;;;;;37.58;27.92;;;;;;;21.06;89.21;101371.91;5094646;28;20039;-50
2022/08/19 10:34:30;;;;;;;32.13;21.65;;;;;;;21.10;89.06;101372.91;4373580;28;10001131;-47
2022/08/19 10:37:00;;;;;;;37.70;28.33;;;;;;;21.14;89.25;101373.91;5089850;28;20853;-48
2022/08/19 10:39:33;;;;;;;35.78;27.13;;;;;;;21.18;88.95;101380.41;5075142;28;20097;-53
2022/08/19 10:42:11;;;;;;;42.47;28.45;;;;;;;21.17;87.75;101376.00;5091070;28;20039;-49
2022/08/19 10:44:39;;;;;;;37.65;28.48;;;;;;;21.12;87.75;101373.41;5090921;28;20052;-52
2022/08/19 10:47:07;;;;;;;41.03;28.83;;;;;;;21.02;87.34;101373.69;5090286;28;20494;-54
2022/08/19 10:52:49;;;;;;;42.70;29.00;;;;;;;20.99;89.29;101377.13;5071805;28;20051;-50
2022/08/19 10:58:17;;;;;;;38.58;28.92;;;;;;;21.04;89.80;101369.47;5077075;28;20035;-55
2022/08/19 11:00:55;;;;;;;47.72;34.17;;;;;;;21.04;90.38;101365.88;5071936;28;20529;-48
2022/08/19 11:03:24;;;;;;;43.97;31.10;;;;;;;21.03;90.79;101355.97;5090601;28;20445;-53
2022/08/19 11:06:06;;;;;;;36.03;27.15;;;;;;;21.08;90.57;101353.03;5089492;28;20502;-53
2022/08/19 11:08:37;;;;;;;39.80;27.13;;;;;;;21.19;89.57;101347.94;5072365;28;20047;-49
2022/08/19 11:11:06;;;;;;;34.50;24.95;;;;;;;21.31;89.55;101350.06;5089912;28;20497;-55
2022/08/19 11:13:38;;;;;;;34.58;26.05;;;;;;;21.37;89.15;101354.31;5071628;28;20044;-51
2022/08/19 11:16:13;;;;;;;33.40;24.13;;;;;;;21.44;88.43;101349.91;5083450;28;20044;-52
2022/08/19 11:18:44;;;;;;;30.40;22.55;;;;;;;21.49;87.45;101349.72;5089935;28;20048;-52
2022/08/19 11:21:17;;;;;;;36.17;27.20;;;;;;;21.51;86.32;101348.59;5087350;28;20036;-52
2022/08/19 11:23:46;;;;;;;35.65;25.92;;;;;;;21.53;86.24;101357.38;5089597;28;20036;-55
2022/08/19 11:26:15;;;;;;;30.13;22.42;;;;;;;21.55;86.39;101350.41;5091876;28;20036;-50
2022/08/19 11:28:43;;;;;;;38.25;25.35;;;;;;;21.58;85.13;101355.28;5092813;28;20052;-54
2022/08/19 11:31:16;;;;;;;34.28;21.83;;;;;;;21.61;85.37;101351.84;5084175;28;20355;-54
2022/08/19 11:33:45;;;;;;;31.65;23.00;;;;;;;21.67;85.03;101346.91;5093067;28;20040;-51
2022/08/19 11:36:16;;;;;;;30.33;22.50;;;;;;;21.70;84.76;101354.59;5091355;28;20051;-52
2022/08/19 11:38:48;;;;;;;32.90;25.02;;;;;;;21.73;84.48;101350.34;5092719;28;20498;-53
2022/08/19 11:41:18;;;;;;;29.70;21.92;;;;;;;21.74;84.09;101340.88;5093371;28;20407;-55
2022/08/19 11:43:46;;;;;;;30.48;21.63;;;;;;;21.76;83.03;101344.13;5092688;28;20078;-53
2022/08/19 11:46:15;;;;;;;29.48;20.92;;;;;;;21.77;82.95;101337.41;5074221;28;20048;-55